Strona główna
METAR-TAF:

METAR-TAF

Lotnisko :

Berlin, New Hampshire, Stany Zjednoczone

Szerokość geograficzna: 44-34-34N, Długość geograficzna: 071-10-43W, wysokość: 353 m

Aktualna obserwacja pogody

Raport powstał 13 minut temu, godzina 08:52 UTC
Cisza
Temperatura 10°C
Wilgotność 100%
Ciśnienie 1023 hPa
Widzialność: 0.4 km
mgła

METAR: KBML 200852Z AUTO 00000KT 1/4SM FG VV001 10/10 A3022 RMK AO2 SLP232 T01000100 53009

czas: 05:05 (09:05 UTC)


TAF: brakujący

Obserwacja i prognoza pogody dla ponad 4000 lotnisk (raport METAR i TAF).

Dostępne stacje oznaczono żółtymi i czerwonymi punktami na mapie.

Najedź kursorem aby zobaczyć nazwę stacji.

Kliknij aby zobaczyć obserwacje i prognozy pogody.

Aby zmienić mapę: kliknij na zielony przycisk z czarnym krzyżykiem, aby powiększyć; na zielony przycisk z myślnikiem, aby pomniejszyć; na zielone strzałki, aby przejść do map sąsiednich.


METAR-TAF: